Welcome to the New NWS' Forecast!
Most changes are behind the scenes, but click here for differences you might notice.

Terminal Aerodrome Forecast (TAF)

Issued by National Weather Service (NWS)

                            
165 
FTUS42 KKEY 181135
TAFMTH
TAF
KMTH 181135Z 1812/1912 10006KT P6SM VCSH SCT025
     FM181500 12008G16KT P6SM VCTS SCT025CB SCT050
     FM190300 09008KT P6SM VCSH SCT025=